Time;durP1;ratioP1;P1;durP2;ratioP2;P2;SDS_P1;SDS_P2;PMS_P1;PMS_P2;Temp;Humidity;BMP_temperature;BMP_pressure;BME280_temperature;BME280_humidity;BME280_pressure;Samples;Min_cycle;Max_cycle;Signal;HPM_P1;HPM_P2
2023/06/18 00:01:13;;;;;;;16.63;12.88;;;;;;;;;;7558776;19;20017;-78
2023/06/18 00:03:46;;;;;;;19.90;14.60;;;;;;;;;;7553174;19;20018;-78
2023/06/18 00:06:19;;;;;;;17.52;12.95;;;;;;;;;;7560129;19;20052;-79
2023/06/18 00:08:54;;;;;;;25.33;13.95;;;;;;;;;;7568206;19;20014;-79
2023/06/18 00:11:27;;;;;;;22.15;12.88;;;;;;;;;;7569027;19;20345;-79
2023/06/18 00:14:00;;;;;;;16.52;13.13;;;;;;;;;;7562737;19;20006;-79
2023/06/18 00:16:33;;;;;;;20.33;13.90;;;;;;;;;;7558278;19;20019;-79
2023/06/18 00:19:05;;;;;;;18.92;14.52;;;;;;;;;;7564689;19;20026;-79
2023/06/18 00:21:38;;;;;;;21.70;13.50;;;;;;;;;;7541647;19;20013;-79
2023/06/18 00:24:11;;;;;;;17.03;13.53;;;;;;;;;;7568218;19;20018;-81
2023/06/18 00:26:44;;;;;;;20.27;13.73;;;;;;;;;;7562474;19;20364;-79
2023/06/18 00:29:17;;;;;;;18.75;13.35;;;;;;;;;;7576211;19;20032;-79
2023/06/18 00:31:50;;;;;;;20.65;14.20;;;;;;;;;;7557056;19;21564;-79
2023/06/18 00:34:28;;;;;;;21.90;14.15;;;;;;;;;;7569002;19;20030;-79
2023/06/18 00:37:02;;;;;;;16.85;13.35;;;;;;;;;;7562771;19;21886;-79
2023/06/18 00:39:39;;;;;;;23.73;14.18;;;;;;;;;;7546460;19;20010;-79
2023/06/18 00:42:12;;;;;;;18.75;12.85;;;;;;;;;;7549458;19;20038;-79
2023/06/18 00:44:45;;;;;;;17.48;13.13;;;;;;;;;;7544155;19;20007;-79
2023/06/18 00:47:19;;;;;;;17.63;13.73;;;;;;;;;;7543175;19;20643;-78
2023/06/18 00:49:51;;;;;;;19.13;13.85;;;;;;;;;;7544754;19;20930;-77
2023/06/18 00:52:25;;;;;;;21.30;13.85;;;;;;;;;;7565063;19;20022;-78
2023/06/18 00:54:58;;;;;;;18.33;13.18;;;;;;;;;;7538285;19;21087;-78
2023/06/18 00:57:31;;;;;;;19.83;14.55;;;;;;;;;;7536084;19;20032;-77
2023/06/18 01:00:09;;;;;;;20.10;14.43;;;;;;;;;;7535608;19;21099;-78
2023/06/18 01:02:45;;;;;;;20.52;14.85;;;;;;;;;;7525714;19;22740;-78
2023/06/18 01:05:19;;;;;;;17.70;13.75;;;;;;;;;;7564067;19;20015;-79
2023/06/18 01:07:53;;;;;;;18.25;14.25;;;;;;;;;;7538587;19;20017;-78
2023/06/18 01:10:29;;;;;;;;;;;;;;;;;;7550249;19;20025;-78
2023/06/18 01:13:02;;;;;;;19.73;13.35;;;;;;;;;;7541743;19;19915;-78
2023/06/18 01:15:35;;;;;;;;;;;;;;;;;;7527951;19;20026;-77
2023/06/18 01:18:09;;;;;;;20.88;14.60;;;;;;;;;;7536430;19;20834;-78
2023/06/18 01:20:44;;;;;;;17.77;13.57;;;;;;;;;;7546867;19;21769;-79
2023/06/18 01:23:25;;;;;;;20.15;13.77;;;;;;;;;;7531619;19;22407;-79
2023/06/18 01:26:00;;;;;;;16.75;13.80;;;;;;;;;;7530334;19;20014;-79
2023/06/18 01:28:35;;;;;;;18.92;13.80;;;;;;;;;;7540911;19;20059;-79
2023/06/18 01:31:08;;;;;;;16.42;13.13;;;;;;;;;;7529429;19;20013;-78
2023/06/18 01:33:41;;;;;;;22.52;13.88;;;;;;;;;;7560870;19;20415;-79
2023/06/18 01:36:14;;;;;;;20.83;12.18;;;;;;;;;;7535109;19;21849;-79
2023/06/18 01:38:47;;;;;;;19.58;13.43;;;;;;;;;;7546114;19;20067;-78
2023/06/18 01:41:20;;;;;;;;;;;;;;;;;;7534177;19;20909;-78
2023/06/18 01:44:02;;;;;;;16.45;13.10;;;;;;;;;;7538749;19;27818;-80
2023/06/18 01:46:35;;;;;;;19.17;13.25;;;;;;;;;;7547982;19;21003;-78
2023/06/18 01:49:09;;;;;;;18.63;13.10;;;;;;;;;;7524290;19;20235;-80
2023/06/18 01:51:43;;;;;;;20.83;13.88;;;;;;;;;;7528873;19;20014;-80
2023/06/18 01:54:17;;;;;;;16.90;13.15;;;;;;;;;;7532881;19;20018;-77
2023/06/18 01:56:51;;;;;;;16.67;13.20;;;;;;;;;;7534991;19;20049;-80
2023/06/18 01:59:25;;;;;;;15.27;12.38;;;;;;;;;;7518255;19;21357;-80
2023/06/18 02:01:58;;;;;;;21.23;13.00;;;;;;;;;;7537823;19;20026;-80
2023/06/18 02:04:31;;;;;;;18.23;13.77;;;;;;;;;;7528196;19;20994;-79
2023/06/18 02:07:05;;;;;;;15.95;13.07;;;;;;;;;;7536482;19;20019;-80
2023/06/18 02:09:38;;;;;;;17.67;14.20;;;;;;;;;;7536576;19;20022;-80
2023/06/18 02:12:11;;;;;;;19.38;14.25;;;;;;;;;;7515363;19;20025;-77
2023/06/18 02:14:44;;;;;;;17.77;13.55;;;;;;;;;;7548803;19;20018;-80
2023/06/18 02:17:17;;;;;;;18.40;13.60;;;;;;;;;;7524233;19;20019;-80
2023/06/18 02:19:50;;;;;;;17.73;12.90;;;;;;;;;;7528085;19;20395;-77
2023/06/18 02:22:24;;;;;;;15.73;12.57;;;;;;;;;;7525999;19;20604;-78
2023/06/18 02:24:57;;;;;;;18.83;13.15;;;;;;;;;;7530601;19;20564;-80
2023/06/18 02:27:29;;;;;;;18.15;14.13;;;;;;;;;;7514483;19;20035;-78
2023/06/18 02:30:06;;;;;;;16.87;13.60;;;;;;;;;;7528260;19;20011;-79
2023/06/18 02:32:41;;;;;;;18.55;14.13;;;;;;;;;;7525390;19;20301;-79
2023/06/18 02:35:14;;;;;;;17.75;12.98;;;;;;;;;;7523915;19;20011;-79
2023/06/18 02:37:47;;;;;;;17.30;12.15;;;;;;;;;;7529740;19;20014;-79
2023/06/18 02:40:19;;;;;;;16.50;12.90;;;;;;;;;;7533434;19;20030;-79
2023/06/18 02:42:53;;;;;;;17.75;13.07;;;;;;;;;;7545788;19;20043;-81
2023/06/18 02:45:26;;;;;;;18.42;14.40;;;;;;;;;;7538451;19;20014;-80
2023/06/18 02:47:59;;;;;;;;;;;17.00;80.10;;;;;;7539373;19;21440;-80
2023/06/18 02:50:33;;;;;;;19.13;12.93;;;14.30;93.30;;;;;;7533234;19;20693;-80
2023/06/18 02:53:05;;;;;;;18.05;13.15;;;;;;;;;;7549519;19;20014;-80
2023/06/18 02:55:41;;;;;;;17.30;13.50;;;;;;;;;;7542634;19;20655;-79
2023/06/18 02:58:27;;;;;;;19.05;14.95;;;;;;;;;;7556468;19;21274;-80
2023/06/18 03:01:04;;;;;;;20.50;13.75;;;;;;;;;;7549389;19;20018;-81
2023/06/18 03:03:43;;;;;;;17.92;13.48;;;;;;;;;;7577330;19;21140;-80
2023/06/18 03:06:16;;;;;;;16.92;13.70;;;;;;;;;;7576345;19;19998;-79
2023/06/18 03:08:48;;;;;;;18.23;13.67;;;;;;;;;;7562866;19;20083;-79
2023/06/18 03:11:22;;;;;;;18.23;14.38;;;;;;;;;;7555714;19;20126;-79
2023/06/18 03:13:55;;;;;;;20.45;14.20;;;;;;;;;;7535981;19;20014;-77
2023/06/18 03:16:30;;;;;;;20.00;13.35;;;;;;;;;;7549044;19;20644;-78
2023/06/18 03:19:03;;;;;;;17.15;12.85;;;;;;;;;;7543084;19;20011;-79
2023/06/18 03:21:39;;;;;;;20.73;13.88;;;;;;;;;;7540793;19;20026;-79
2023/06/18 03:24:14;;;;;;;18.33;13.00;;;;;;;;;;7552993;19;20015;-80
2023/06/18 03:26:48;;;;;;;17.98;13.25;;;;;;;;;;7539826;19;20014;-78
2023/06/18 03:29:24;;;;;;;17.38;13.35;;;;;;;;;;7528812;19;20014;-81
2023/06/18 03:31:58;;;;;;;17.77;13.57;;;;;;;;;;7522973;19;20117;-79
2023/06/18 03:34:35;;;;;;;18.80;13.73;;;;;;;;;;7532493;19;20010;-78
2023/06/18 03:37:09;;;;;;;17.92;12.98;;;;;;;;;;7527601;19;20881;-79
2023/06/18 03:39:42;;;;;;;20.98;12.95;;;;;;;;;;7546250;19;20049;-77
2023/06/18 03:42:16;;;;;;;21.45;12.70;;;;;;;;;;7541954;19;20010;-77
2023/06/18 03:44:49;;;;;;;15.75;12.98;;;;;;;;;;7544095;19;20826;-78
2023/06/18 03:47:23;;;;;;;16.08;12.75;;;;;;;;;;7545104;19;20647;-80
2023/06/18 03:49:55;;;;;;;16.73;12.90;;;;;;;;;;7549947;19;20018;-79
2023/06/18 03:52:28;;;;;;;17.63;13.15;;;;;;;;;;7566408;19;20015;-81
2023/06/18 03:55:01;;;;;;;17.05;12.50;;;;;;;;;;7543010;19;20022;-77
2023/06/18 03:57:34;;;;;;;17.43;12.50;;;;;;;;;;7558528;19;20014;-79
2023/06/18 04:00:09;;;;;;;20.45;13.23;;;;;;;;;;7536071;19;20021;-79
2023/06/18 04:02:44;;;;;;;41.15;13.45;;;;;;;;;;7571269;19;20018;-80
2023/06/18 04:05:23;;;;;;;16.10;11.95;;;;;;;;;;7551981;19;20014;-78
2023/06/18 04:07:56;;;;;;;17.95;12.70;;;;;;;;;;7561330;19;20026;-77
2023/06/18 04:10:29;;;;;;;18.00;12.57;;;;;;;;;;7554201;19;20018;-80
2023/06/18 04:13:02;;;;;;;22.63;13.07;;;;;;;;;;7553841;19;20027;-77
2023/06/18 04:15:35;;;;;;;17.45;11.60;;;;;;;;;;7553593;19;20315;-79
2023/06/18 04:18:08;;;;;;;18.75;12.80;;;;;;;;;;7556386;19;20018;-78
2023/06/18 04:20:41;;;;;;;19.52;13.25;;;;;;;;;;7570758;19;20062;-78
2023/06/18 04:23:14;;;;;;;;;;;;;;;;;;7553767;19;20074;-78
2023/06/18 04:25:48;;;;;;;16.38;11.50;;;;;;;;;;7569660;19;19926;-78
2023/06/18 04:28:22;;;;;;;;;;;;;;;;;;7560041;19;20067;-78
2023/06/18 04:30:55;;;;;;;17.20;12.07;;;;;;;;;;7536025;19;21184;-78
2023/06/18 04:33:28;;;;;;;;;;;;;;;;;;7543769;19;20011;-78
2023/06/18 04:36:01;;;;;;;14.98;11.20;;;;;;;;;;7566684;19;19937;-78
2023/06/18 04:38:34;;;;;;;18.67;12.70;;;;;;;;;;7550619;19;20014;-78
2023/06/18 04:41:07;;;;;;;15.40;11.73;;;;;;;;;;7533565;19;20276;-78
2023/06/18 04:43:40;;;;;;;17.17;11.60;;;;;;;;;;7558937;19;20017;-80
2023/06/18 04:46:13;;;;;;;;;;;;;;;;;;7558087;19;20015;-78
2023/06/18 04:48:47;;;;;;;15.10;12.13;;;;;;;;;;7559845;19;20002;-79
2023/06/18 04:51:20;;;;;;;19.05;11.98;;;;;;;;;;7547892;19;20021;-79
2023/06/18 04:53:53;;;;;;;17.30;12.33;;;;;;;;;;7548283;19;20033;-79
2023/06/18 04:56:26;;;;;;;14.88;11.27;;;;;;;;;;7531573;19;20048;-80
2023/06/18 04:59:00;;;;;;;18.00;10.82;;;;;;;;;;7543296;19;20015;-79
2023/06/18 05:01:33;;;;;;;16.15;12.23;;;;;;;;;;7544352;19;20872;-80
2023/06/18 05:04:06;;;;;;;16.50;11.88;;;;;;;;;;7556340;19;20057;-80
2023/06/18 05:06:39;;;;;;;15.63;11.60;;;;;;;;;;7549898;19;20056;-79
2023/06/18 05:09:13;;;;;;;16.40;10.93;;;;;;;;;;7554808;19;20014;-80
2023/06/18 05:11:46;;;;;;;20.95;12.20;;;;;;;;;;7529891;19;20122;-79
2023/06/18 05:14:20;;;;;;;13.43;10.70;;;;;;;;;;7551275;19;20023;-79
2023/06/18 05:16:52;;;;;;;17.87;11.43;;;;;;;;;;7571764;19;20022;-79
2023/06/18 05:19:25;;;;;;;14.33;10.40;;;;;;;;;;7564280;19;20013;-78
2023/06/18 05:21:58;;;;;;;15.90;10.57;;;;;;;;;;7559695;19;20010;-79
2023/06/18 05:24:32;;;;;;;16.52;11.13;;;;;;;;;;7567940;19;21751;-79
2023/06/18 05:27:06;;;;;;;14.60;10.75;;;;;;;;;;7555959;19;20097;-79
2023/06/18 05:29:39;;;;;;;14.82;10.68;;;;;;;;;;7565062;19;21077;-79
2023/06/18 05:32:12;;;;;;;14.57;11.20;;;;;;;;;;7553856;19;20006;-80
2023/06/18 05:34:47;;;;;;;17.20;10.65;;;;;;;;;;7558599;19;21051;-79
2023/06/18 05:37:19;;;;;;;14.60;10.57;;;;;;;;;;7552610;19;21742;-78
2023/06/18 05:39:52;;;;;;;15.65;10.45;;;;;;;;;;7559318;19;20031;-80
2023/06/18 05:42:27;;;;;;;13.38;10.45;;;;;;;;;;7534119;19;20018;-78
2023/06/18 05:45:00;;;;;;;13.40;10.05;;;;;;;;;;7564678;19;20010;-79
2023/06/18 05:47:33;;;;;;;12.00;9.73;;;;;;;;;;7545560;19;20006;-79
2023/06/18 05:50:08;;;;;;;15.07;10.50;;;;;;;;;;7519833;19;20011;-79
2023/06/18 05:52:42;;;;;;;;;;;;;;;;;;7552517;19;20006;-79
2023/06/18 05:55:15;;;;;;;13.98;9.95;;;;;;;;;;7549200;19;19919;-79
2023/06/18 05:57:50;;;;;;;15.00;10.63;;;;;;;;;;7560863;19;20879;-78
2023/06/18 06:00:23;;;;;;;18.63;10.20;;;;;;;;;;7541420;19;26992;-81
2023/06/18 06:02:57;;;;;;;14.73;9.80;;;;;;;;;;7548969;19;20093;-78
2023/06/18 06:05:31;;;;;;;13.90;9.65;;;;;;;;;;7510934;19;20025;-79
2023/06/18 06:08:07;;;;;;;15.82;10.05;;;;;;;;;;7558885;19;20007;-79
2023/06/18 06:10:41;;;;;;;13.25;9.77;;;;;;;;;;7549867;19;20076;-79
2023/06/18 06:13:14;;;;;;;16.55;10.52;;;;;;;;;;7569369;19;20891;-79
2023/06/18 06:15:47;;;;;;;16.02;10.50;;;;;;;;;;7552327;19;20788;-78
2023/06/18 06:18:20;;;;;;;14.75;10.43;;;;;;;;;;7551508;19;20018;-79
2023/06/18 06:20:53;;;;;;;13.07;9.70;;;;;;;;;;7534436;19;20026;-79
2023/06/18 06:23:26;;;;;;;13.60;10.10;;;;;;;;;;7553100;19;20837;-79
2023/06/18 06:25:59;;;;;;;14.02;9.77;;;;;;;;;;7557356;19;20562;-79
2023/06/18 06:28:33;;;;;;;18.00;9.60;;;;;;;;;;7547546;19;20122;-79
2023/06/18 06:31:08;;;;;;;14.63;9.10;;;;;;;;;;7543612;19;20014;-79
2023/06/18 06:33:41;;;;;;;13.48;9.88;;;;;;;;;;7530169;19;20018;-79
2023/06/18 06:36:14;;;;;;;16.92;9.40;;;;;;;;;;7528433;19;25113;-79
2023/06/18 06:38:48;;;;;;;13.65;9.52;;;;;;;;;;7535892;19;20014;-80
2023/06/18 06:41:22;;;;;;;11.25;8.35;;;;;;;;;;7545342;19;20010;-82
2023/06/18 06:43:54;;;;;;;12.35;9.75;;;;;;;;;;7524627;19;20118;-80
2023/06/18 06:46:41;;;;;;;14.68;9.20;;;;;;;;;;7530118;19;20014;-77
2023/06/18 06:49:23;;;;;;;13.88;9.30;;;;;;;;;;7512072;19;20025;-79
2023/06/18 06:52:07;;;;;;;14.95;9.35;;;;;;;;;;7509183;19;20027;-80
2023/06/18 06:54:40;;;;;;;17.67;9.17;;;;;;;;;;7523758;19;20022;-80
2023/06/18 06:57:14;;;;;;;12.60;8.65;;;;;;;;;;7524319;19;20279;-80
2023/06/18 06:59:47;;;;;;;15.35;9.23;;;;;;;;;;7531078;19;20007;-80
2023/06/18 07:02:21;;;;;;;12.32;9.95;;;;;;;;;;7518769;19;20014;-78
2023/06/18 07:04:54;;;;;;;15.05;9.80;;;;;;;;;;7516552;19;20034;-79
2023/06/18 07:07:27;;;;;;;13.90;10.27;;;;;;;;;;7528275;19;20364;-79
2023/06/18 07:10:00;;;;;;;15.20;10.17;;;;;;;;;;7532239;19;20018;-79
2023/06/18 07:12:33;;;;;;;11.85;9.32;;;;;;;;;;7521748;19;20268;-78
2023/06/18 07:15:06;;;;;;;12.52;9.23;;;;;;;;;;7536298;19;20014;-79
2023/06/18 07:17:39;;;;;;;12.48;9.57;;;;;;;;;;7533454;19;20025;-79
2023/06/18 07:20:12;;;;;;;13.40;9.30;;;;;;;;;;7530010;19;20014;-81
2023/06/18 07:22:47;;;;;;;11.55;9.43;;;;;;;;;;7552953;19;20016;-79
2023/06/18 07:25:21;;;;;;;11.95;9.15;;;;;;;;;;7526028;19;20737;-79
2023/06/18 07:27:54;;;;;;;11.43;9.15;;;;;;;;;;7533215;19;20475;-79
2023/06/18 07:30:27;;;;;;;11.23;9.18;;;;;;;;;;7525683;19;20034;-79
2023/06/18 07:33:00;;;;;;;15.40;9.10;;;;;;;;;;7528374;19;20014;-79
2023/06/18 07:35:34;;;;;;;;;;;;;;;;;;7532000;19;20013;-78
2023/06/18 07:38:06;;;;;;;14.07;9.75;;;;;;;;;;7525928;19;19958;-78
2023/06/18 07:40:39;;;;;;;13.60;9.13;;;;;;;;;;7517959;19;20348;-78
2023/06/18 07:43:12;;;;;;;12.10;8.85;;;;;;;;;;7480403;19;20377;-79
2023/06/18 07:45:45;;;;;;;15.13;9.48;;;;;;;;;;7483910;19;20340;-79
2023/06/18 07:48:18;;;;;;;13.63;8.90;;;;;;;;;;7489225;19;20019;-81
2023/06/18 07:50:51;;;;;;;13.30;9.13;;;;;;;;;;7506646;19;20065;-79
2023/06/18 07:53:24;;;;;;;12.55;8.90;;;;;;;;;;7486391;19;20007;-78
2023/06/18 07:55:57;;;;;;;12.73;9.07;;;;;;;;;;7475521;19;20025;-78
2023/06/18 07:58:30;;;;;;;10.93;8.97;;;;;;;;;;7496329;19;20885;-78
2023/06/18 08:01:02;;;;;;;10.70;8.75;;;;;;;;;;7499216;19;20342;-78
2023/06/18 08:03:36;;;;;;;12.48;8.82;;;;;;;;;;7494196;19;20010;-78
2023/06/18 08:06:09;;;;;;;14.43;9.52;;;;;;;;;;7479914;19;20034;-78
2023/06/18 08:08:42;;;;;;;10.63;8.02;;;;;;;;;;7529322;19;20023;-78
2023/06/18 08:11:17;;;;;;;12.63;8.88;;;;;;;;;;7551442;19;20035;-78
2023/06/18 08:13:50;;;;;;;11.93;8.23;;;;;;;;;;7575198;19;20091;-78
2023/06/18 08:16:23;;;;;;;11.93;7.25;;;;;;;;;;7565961;19;20762;-78
2023/06/18 08:18:56;;;;;;;13.77;8.18;;;;;;;;;;7560230;19;20010;-78
2023/06/18 08:21:29;;;;;;;9.68;7.30;;;;;;;;;;7526996;19;20017;-78
2023/06/18 08:24:06;;;;;;;9.55;7.90;;;;;;;;;;7522058;19;20014;-78
2023/06/18 08:26:42;;;;;;;10.85;7.63;;;;;;;;;;7531601;19;20324;-77
2023/06/18 08:29:14;;;;;;;12.02;7.57;;;;;;;;;;7532315;19;20424;-79
2023/06/18 08:31:51;;;;;;;10.30;8.02;;;;;;;;;;7548563;19;20106;-78
2023/06/18 08:34:33;;;;;;;10.32;8.02;;;;;;;;;;7532218;19;20022;-84
2023/06/18 08:37:06;;;;;;;;;;;;;;;;;;7595819;19;20029;-80
2023/06/18 08:39:39;;;;;;;10.77;7.28;;;;;;;;;;7577075;19;19936;-81
2023/06/18 08:42:23;;;;;;;9.98;7.38;;;;;;;;;;7564258;19;20014;-80
2023/06/18 08:45:08;;;;;;;10.10;8.27;;;;;;;;;;7530418;19;20022;-78
2023/06/18 08:47:41;;;;;;;9.55;7.65;;;;;;;;;;7542828;19;20046;-79
2023/06/18 08:50:19;;;;;;;8.75;7.10;;;;;;;;;;7582689;19;20033;-79
2023/06/18 08:53:08;;;;;;;15.18;8.43;;;;;;;;;;7567157;19;20026;-80
2023/06/18 08:55:52;;;;;;;9.38;7.85;;;;;;;;;;7580261;19;20022;-80
2023/06/18 08:58:30;;;;;;;10.63;7.72;;;;;;;;;;7600048;19;20014;-79
2023/06/18 09:01:02;;;;;;;13.68;7.88;;;;;;;;;;7590936;19;20035;-78
2023/06/18 09:03:39;;;;;;;14.25;8.05;;;;;;;;;;7577766;19;21826;-78
2023/06/18 09:06:14;;;;;;;13.38;7.70;;;;;;;;;;7576774;19;20030;-79
2023/06/18 09:08:51;;;;;;;12.75;7.57;;;;;;;;;;7576482;19;20018;-79
2023/06/18 09:11:24;;;;;;;9.32;7.60;;;;;;;;;;7565864;19;20010;-79
2023/06/18 09:14:00;;;;;;;8.82;7.85;;;;;;;;;;7567380;19;20779;-78
2023/06/18 09:16:34;;;;;;;10.93;7.78;;;;;;;;;;7541413;19;20034;-78
2023/06/18 09:19:10;;;;;;;14.73;7.72;;;;;;;;;;7566506;19;20062;-78
2023/06/18 09:21:50;;;;;;;13.15;8.40;;;;;;;;;;7590451;19;20022;-79
2023/06/18 09:24:23;;;;;;;10.80;7.63;;;;;;;;;;7612580;19;20022;-80
2023/06/18 09:27:02;;;;;;;8.95;8.02;;;;;;;;;;7581391;19;20014;-78
2023/06/18 09:29:36;;;;;;;10.75;8.30;;;;;;;;;;7551229;19;20017;-79
2023/06/18 09:32:10;;;;;;;14.45;8.32;;;;;;;;;;7542290;19;20116;-78
2023/06/18 09:34:44;;;;;;;11.30;8.20;;;;;;;;;;7565648;19;20089;-79
2023/06/18 09:37:16;;;;;;;;;;;;;;;;;;7522668;19;20015;-79
2023/06/18 09:39:53;;;;;;;9.82;7.70;;;;;;;;;;7558459;19;19922;-79
2023/06/18 09:42:31;;;;;;;11.30;7.63;;;;;;;;;;7534437;19;21078;-79
2023/06/18 09:45:04;;;;;;;12.88;8.93;;;;;;;;;;7538993;19;20114;-78
2023/06/18 09:47:38;;;;;;;11.30;7.75;;;;;;;;;;7546578;19;20098;-79
2023/06/18 09:50:11;;;;;;;9.45;7.90;;;;;;;;;;7541412;19;20045;-78
2023/06/18 09:52:48;;;;;;;10.35;8.32;;;;;;;;;;7562394;19;20010;-78
2023/06/18 09:55:34;;;;;;;10.45;8.30;;;;;;;;;;7561071;19;20011;-77
2023/06/18 09:58:08;;;;;;;10.45;8.25;;;;;;;;;;7580703;19;20022;-76
2023/06/18 10:00:41;;;;;;;13.10;8.38;;;;;;;;;;7564690;19;21023;-76
2023/06/18 10:03:14;;;;;;;10.47;8.20;;;;;;;;;;7578417;19;20271;-77
2023/06/18 10:05:47;;;;;;;9.15;8.13;;;;;;;;;;7572621;19;20024;-78
2023/06/18 10:08:21;;;;;;;10.38;8.50;;;;;;;;;;7582723;19;20014;-77
2023/06/18 10:10:53;;;;;;;11.48;8.25;;;;;;;;;;7561667;19;20023;-76
2023/06/18 10:13:26;;;;;;;11.93;8.27;;;;;;;;;;7554736;19;20824;-79
2023/06/18 10:15:59;;;;;;;9.07;7.85;;;;;;;;;;7577742;19;20398;-79
2023/06/18 10:18:32;;;;;;;12.05;8.80;;;;;;;;;;7560739;19;20018;-78
2023/06/18 10:21:05;;;;;;;8.85;7.82;;;;;;;;;;7569759;19;20020;-78
2023/06/18 10:23:39;;;;;;;10.70;8.27;;;;;;;;;;7554190;19;20017;-78
2023/06/18 10:26:12;;;;;;;13.52;8.07;;;;;;;;;;7541593;19;20014;-77
2023/06/18 10:28:45;;;;;;;12.07;8.57;;;;;;;;;;6533750;19;10000489;-78
2023/06/18 10:31:20;;;;;;;11.82;8.52;;;;;;;;;;7516273;19;20327;-79
2023/06/18 10:33:53;;;;;;;12.43;9.23;;;;;;;;;;7502698;19;20011;-79
2023/06/18 10:36:26;;;;;;;;;;;;;;;;;;7529129;19;20791;-77
2023/06/18 10:38:59;;;;;;;13.13;8.05;;;;;;;;;;7525632;19;19929;-77
2023/06/18 10:41:32;;;;;;;9.77;8.10;;;;;;;;;;7516311;19;20118;-77
2023/06/18 10:44:04;;;;;;;10.40;8.32;;;;;;;;;;7547507;19;20015;-77
2023/06/18 10:46:38;;;;;;;10.45;8.57;;;;;;;;;;7554485;19;21051;-77
2023/06/18 10:49:10;;;;;;;;;;;;;;;;;;7555228;19;20071;-77
2023/06/18 10:51:51;;;;;;;10.18;8.27;;;;;;;;;;7559723;19;19967;-77
2023/06/18 10:54:29;;;;;;;14.20;8.57;;;;;;;;;;7566283;19;20014;-77
2023/06/18 10:57:03;;;;;;;8.65;7.75;;;;;;;;;;7590090;19;20011;-77
2023/06/18 10:59:44;;;;;;;13.50;8.40;;;14.00;93.40;;;;;;7580484;19;20022;-79
2023/06/18 11:02:29;;;;;;;11.68;8.73;;;;;;;;;;7572124;19;20929;-79
2023/06/18 11:05:03;;;;;;;12.43;8.20;;;;;;;;;;7580452;19;20018;-80
2023/06/18 11:07:39;;;;;;;9.88;7.93;;;29.90;46.00;;;;;;7600255;19;20113;-79
2023/06/18 11:10:12;;;;;;;13.02;8.77;;;29.80;45.10;;;;;;7593467;19;20025;-79
2023/06/18 11:12:44;;;;;;;9.13;8.23;;;29.60;45.30;;;;;;7575636;19;20014;-77
2023/06/18 11:15:18;;;;;;;9.90;8.57;;;29.60;44.50;;;;;;7568216;19;20267;-77
2023/06/18 11:17:53;;;;;;;9.82;8.02;;;29.60;43.70;;;;;;7554851;19;20012;-78
2023/06/18 11:20:26;;;;;;;13.95;8.50;;;29.50;46.30;;;;;;7504456;19;20015;-78
2023/06/18 11:23:00;;;;;;;11.50;8.40;;;29.90;44.70;;;;;;7552373;19;20025;-78
2023/06/18 11:25:33;;;;;;;13.15;8.30;;;30.10;44.70;;;;;;7558312;19;20524;-78
2023/06/18 11:28:07;;;;;;;10.40;9.27;;;30.30;43.80;;;;;;7553320;19;20089;-79
2023/06/18 11:30:41;;;;;;;10.48;8.48;;;30.50;43.50;;;;;;7573897;19;20112;-79
2023/06/18 11:33:20;;;;;;;11.23;9.02;;;30.40;43.30;;;;;;7569200;19;20370;-79
2023/06/18 11:35:53;;;;;;;9.38;8.48;;;30.40;43.80;;;;;;7561120;19;20018;-79
2023/06/18 11:38:26;;;;;;;10.23;8.25;;;30.50;43.30;;;;;;7573781;19;20872;-79
2023/06/18 11:40:58;;;;;;;10.30;7.43;;;30.70;44.00;;;;;;7556452;19;20022;-79
2023/06/18 11:43:45;;;;;;;10.23;7.97;;;30.80;44.10;;;;;;7551117;19;20287;-79
2023/06/18 11:46:36;;;;;;;11.18;7.82;;;31.10;43.40;;;;;;7595612;19;20287;-79
2023/06/18 11:49:15;;;;;;;8.10;7.30;;;31.40;43.60;;;;;;7569298;19;20481;-80
2023/06/18 11:51:47;;;;;;;9.40;7.80;;;31.70;44.10;;;;;;7536056;19;22162;-78
2023/06/18 11:54:19;;;;;;;12.40;8.73;;;32.00;42.10;;;;;;7585811;19;20057;-78
2023/06/18 11:56:53;;;;;;;9.18;8.05;;;31.80;42.30;;;;;;7564243;19;20065;-78
2023/06/18 11:59:26;;;;;;;13.60;7.82;;;31.80;42.80;;;;;;7560465;19;21111;-81
2023/06/18 12:02:18;;;;;;;9.70;8.68;;;31.70;42.40;;;;;;7559215;19;20966;-78
2023/06/18 12:04:52;;;;;;;10.93;8.32;;;31.90;42.70;;;;;;7522189;19;20014;-78
2023/06/18 12:07:25;;;;;;;9.65;7.68;;;31.60;41.50;;;;;;7559574;19;20033;-78
2023/06/18 12:10:03;;;;;;;9.25;8.23;;;31.80;43.50;;;;;;7574993;19;21337;-78
2023/06/18 12:12:50;;;;;;;10.50;8.05;;;31.90;43.00;;;;;;7583965;19;20018;-78
2023/06/18 12:15:34;;;;;;;11.52;8.13;;;32.30;42.90;;;;;;7540199;19;22155;-78
2023/06/18 12:18:15;;;;;;;8.27;7.40;;;32.60;42.10;;;;;;7538263;19;20046;-77
2023/06/18 12:20:48;;;;;;;10.77;8.30;;;32.80;41.90;;;;;;7566577;19;20492;-78
2023/06/18 12:23:22;;;;;;;9.75;8.13;;;32.60;42.00;;;;;;7557171;19;20552;-79
2023/06/18 12:25:54;;;;;;;13.50;8.25;;;32.70;42.40;;;;;;7561789;19;20015;-77
2023/06/18 12:28:29;;;;;;;9.57;8.27;;;32.70;41.60;;;;;;7531827;19;20588;-78
2023/06/18 12:31:09;;;;;;;9.38;8.38;;;32.70;41.60;;;;;;7588896;19;20398;-78
2023/06/18 12:33:43;;;;;;;10.27;8.13;;;32.60;41.80;;;;;;7561988;19;20419;-78
2023/06/18 12:36:16;;;;;;;13.70;8.30;;;32.70;41.80;;;;;;7572739;19;20018;-79
2023/06/18 12:38:48;;;;;;;12.47;8.53;;;32.90;41.80;;;;;;7585195;19;20592;-79
2023/06/18 12:41:35;;;;;;;9.32;8.00;;;32.60;41.30;;;;;;7551602;19;20284;-78
2023/06/18 12:44:08;;;;;;;8.68;7.88;;;32.60;41.30;;;;;;7568790;19;20090;-79
2023/06/18 12:46:49;;;;;;;9.20;7.90;;;32.90;42.10;;;;;;7555213;19;20018;-78
2023/06/18 12:49:21;;;;;;;8.68;7.43;;;32.80;41.60;;;;;;7566642;19;20042;-79
2023/06/18 12:51:54;;;;;;;11.17;8.13;;;32.90;41.90;;;;;;7565831;19;20028;-80
2023/06/18 12:54:27;;;;;;;8.85;7.95;;;32.90;40.70;;;;;;7577471;19;20578;-79
2023/06/18 12:56:59;;;;;;;10.15;7.97;;;33.10;41.80;;;;;;7574520;19;20058;-79
2023/06/18 12:59:31;;;;;;;9.25;7.93;;;33.20;41.20;;;;;;7568714;19;20014;-80
2023/06/18 13:02:05;;;;;;;9.13;8.13;;;33.10;41.30;;;;;;7560841;19;20053;-81
2023/06/18 13:04:39;;;;;;;10.30;8.43;;;33.10;41.10;;;;;;7566020;19;20029;-79
2023/06/18 13:07:12;;;;;;;8.35;7.53;;;33.20;40.80;;;;;;7591871;19;20138;-80
2023/06/18 13:09:44;;;;;;;9.35;7.72;;;33.30;41.10;;;;;;7557630;19;21222;-79
2023/06/18 13:12:19;;;;;;;17.15;8.23;;;33.30;41.10;;;;;;7540027;19;20017;-80
2023/06/18 13:14:51;;;;;;;10.85;7.95;;;33.50;41.40;;;;;;7574307;19;20033;-81
2023/06/18 13:17:24;;;;;;;10.70;8.88;;;33.40;40.50;;;;;;7565677;19;20022;-80
2023/06/18 13:19:57;;;;;;;13.55;8.32;;;33.40;41.00;;;;;;7556428;19;20047;-80
2023/06/18 13:22:31;;;;;;;9.70;7.90;;;33.60;40.70;;;;;;7558546;19;20029;-82
2023/06/18 13:25:05;;;;;;;14.20;8.13;;;33.60;39.60;;;;;;7601402;19;20307;-79
2023/06/18 13:27:38;;;;;;;10.73;7.97;;;33.90;40.00;;;;;;7605959;19;20035;-80
2023/06/18 13:30:10;;;;;;;;;;;33.70;40.10;;;;;;7594515;19;20014;-79
2023/06/18 13:32:43;;;;;;;10.23;8.38;;;33.80;40.40;;;;;;7547311;19;23458;-79
2023/06/18 13:35:16;;;;;;;8.63;7.72;;;33.90;40.20;;;;;;7531562;19;20022;-78
2023/06/18 13:37:51;;;;;;;10.02;8.18;;;33.90;40.10;;;;;;7545497;19;20106;-79
2023/06/18 13:40:23;;;;;;;;;;;34.00;39.20;;;;;;7561381;19;20651;-78
2023/06/18 13:42:55;;;;;;;10.55;8.65;;;33.80;38.70;;;;;;7587211;19;21201;-80
2023/06/18 13:45:28;;;;;;;8.98;8.05;;;34.00;39.10;;;;;;7577666;19;21266;-79
2023/06/18 13:48:01;;;;;;;10.05;8.23;;;34.00;39.60;;;;;;7529765;19;20094;-77
2023/06/18 13:50:33;;;;;;;13.70;8.27;;;34.00;39.50;;;;;;7532399;19;20021;-78
2023/06/18 13:53:09;;;;;;;11.65;7.60;;;33.70;39.00;;;;;;7573193;19;20018;-78
2023/06/18 13:55:42;;;;;;;9.07;7.85;;;33.80;39.80;;;;;;7548141;19;20070;-78
2023/06/18 13:58:16;;;;;;;9.90;8.20;;;33.90;39.40;;;;;;7569512;19;20038;-77
2023/06/18 14:00:48;;;;;;;13.90;8.15;;;34.00;38.70;;;;;;7557148;19;20019;-78
2023/06/18 14:03:20;;;;;;;9.35;8.13;;;34.20;39.20;;;;;;7580938;19;20014;-79
2023/06/18 14:05:53;;;;;;;13.65;8.30;;;34.20;39.20;;;;;;7565524;19;20011;-80
2023/06/18 14:08:25;;;;;;;13.20;8.38;;;34.20;39.10;;;;;;7562053;19;20014;-79
2023/06/18 14:10:57;;;;;;;8.33;7.53;;;34.00;38.60;;;;;;7568165;19;22693;-80
2023/06/18 14:13:29;;;;;;;11.77;8.10;;;33.90;39.90;;;;;;7570750;19;20279;-79
2023/06/18 14:16:02;;;;;;;13.87;8.23;;;34.00;39.00;;;;;;7572558;19;20053;-78
2023/06/18 14:18:35;;;;;;;9.63;8.70;;;34.20;39.20;;;;;;7579264;19;20298;-79
2023/06/18 14:21:07;;;;;;;9.23;8.32;;;34.40;38.60;;;;;;7558251;19;20017;-79
2023/06/18 14:23:41;;;;;;;8.90;8.00;;;34.10;38.90;;;;;;7559059;19;20019;-77
2023/06/18 14:26:13;;;;;;;10.15;7.90;;;34.20;39.10;;;;;;7571503;19;20086;-78
2023/06/18 14:28:45;;;;;;;13.18;8.80;;;34.20;38.30;;;;;;7572878;19;20528;-78
2023/06/18 14:31:17;;;;;;;13.93;8.32;;;34.40;38.20;;;;;;7580216;19;20513;-79
2023/06/18 14:33:50;;;;;;;8.90;7.60;;;34.40;38.30;;;;;;7549305;19;20579;-79
2023/06/18 14:36:43;;;;;;;9.68;8.68;;;33.80;39.10;;;;;;7526573;19;20029;-80
2023/06/18 14:39:16;;;;;;;13.10;7.88;;;33.50;39.50;;;;;;7536111;19;20007;-78